Main page
METAR-TAF:

METAR-TAF

Airports :

Udaipur, India

Maharana Pratap Airport

latitude: 24-37-04N, longitude: 73-53-46E, elevation: 513 m

Current weather observation

The report was made 6 hours and 36 minutes ago, at 14:00 UTC
Wind 4 kt from the Southwest
Temperature 33°C
Humidity 20%
Pressure 1008 hPa
Visibility: 5000 m
Scattered clouds at a height of 10000 ft
haze

METAR: VAUD 301400Z 23004KT 5000 HZ SCT100 33/07 Q1008 NOSIG

Time: 02:06 (20:36 UTC)


TAF: missing

Weather observations and forecasts of more than 4000 airports (METAR and TAF reports).

The available stations are represented by yellow and red dots on the map.

Hover mouse over dot to see the name of the station.

Then click to see weather observations and forecasts.

To change the map : click on the green buttons with a black cross to zoom in, on the green button with a dash to zoom out, or on the green arrows for adjacent maps.


METAR-TAF: